createdAt,value
2019-04-25T00:00:51.802Z,55.05
2019-04-25T00:06:16.678Z,56.38
2019-04-25T00:08:46.013Z,55.60
2019-04-25T00:22:12.043Z,55.69
2019-04-25T00:25:12.933Z,55.86
2019-04-25T00:30:08.864Z,56.35
2019-04-25T00:32:38.160Z,57.18
2019-04-25T00:35:07.523Z,57.51
2019-04-25T00:37:36.819Z,56.95
2019-04-25T00:43:02.000Z,57.04
2019-04-25T00:45:31.716Z,57.43
2019-04-25T00:48:04.372Z,57.81
2019-04-25T00:50:33.753Z,58.34
2019-04-25T00:53:03.083Z,59.40
2019-04-25T00:55:32.373Z,57.90
2019-04-25T00:58:21.519Z,59.38
2019-04-25T01:01:29.532Z,57.65
2019-04-25T01:06:33.643Z,59.95
2019-04-25T01:11:58.727Z,59.08
2019-04-25T01:17:35.334Z,58.46
2019-04-25T01:20:05.315Z,59.11
2019-04-25T01:22:34.610Z,60.05
2019-04-25T01:28:18.156Z,60.36
2019-04-25T01:36:36.407Z,60.19
2019-04-25T01:42:39.267Z,60.58
2019-04-25T01:51:05.758Z,61.11
2019-04-25T01:53:54.834Z,60.72
2019-04-25T01:56:25.050Z,61.00
2019-04-25T01:59:13.512Z,61.05
2019-04-25T02:01:56.728Z,61.75
2019-04-25T02:07:14.474Z,62.10
2019-04-25T02:09:43.798Z,61.69
2019-04-25T02:12:33.518Z,61.27
2019-04-25T02:17:37.474Z,60.75
2019-04-25T02:20:25.923Z,61.17
2019-04-25T02:22:55.665Z,61.17
2019-04-25T02:25:26.270Z,61.01
2019-04-25T02:27:56.307Z,61.97
2019-04-25T02:35:50.135Z,61.61
2019-04-25T02:38:19.443Z,62.26
2019-04-25T02:41:09.003Z,62.63
2019-04-25T02:46:55.831Z,63.50
2019-04-25T02:49:44.712Z,62.56
2019-04-25T02:55:30.984Z,64.79
2019-04-25T02:57:48.210Z,64.07
2019-04-25T03:01:10.739Z,63.54
2019-04-25T03:03:34.776Z,63.46
2019-04-25T03:09:00.220Z,63.74
2019-04-25T03:11:49.779Z,64.15
2019-04-25T03:14:19.097Z,64.71
2019-04-25T03:20:06.500Z,64.27
2019-04-25T03:22:44.626Z,63.77
2019-04-25T03:25:25.471Z,64.67
2019-04-25T03:27:54.784Z,64.67
2019-04-25T03:30:44.934Z,65.32
2019-04-25T03:33:19.337Z,65.32
2019-04-25T03:36:05.524Z,64.63
2019-04-25T03:41:10.273Z,65.70
2019-04-25T03:43:39.601Z,65.22
2019-04-25T03:46:08.884Z,65.86
2019-04-25T03:48:38.271Z,65.38
2019-04-25T03:51:08.007Z,65.82
2019-04-25T03:56:14.658Z,65.44
2019-04-25T03:58:55.583Z,65.60
2019-04-25T04:01:36.163Z,65.61
2019-04-25T04:04:06.719Z,65.61
2019-04-25T04:06:36.606Z,66.03
2019-04-25T04:09:07.866Z,65.73
2019-04-25T04:11:38.064Z,65.31
2019-04-25T04:14:08.202Z,65.19
2019-04-25T04:19:16.277Z,66.61
2019-04-25T04:22:05.377Z,67.23
2019-04-25T04:24:48.360Z,66.45
2019-04-25T04:27:18.445Z,66.91
2019-04-25T04:29:47.740Z,66.34
2019-04-25T04:32:17.355Z,66.38
2019-04-25T04:37:23.667Z,66.61
2019-04-25T04:40:05.393Z,66.95
2019-04-25T04:42:34.703Z,66.05
2019-04-25T04:45:04.184Z,66.05
2019-04-25T04:47:53.345Z,65.30
2019-04-25T04:50:43.441Z,66.01
2019-04-25T04:53:14.986Z,66.01
2019-04-25T04:55:44.668Z,65.31
2019-04-25T04:58:14.999Z,65.84
2019-04-25T05:00:57.011Z,65.86
2019-04-25T05:06:43.679Z,66.19
2019-04-25T05:09:16.571Z,66.19
2019-04-25T05:11:45.877Z,65.16
2019-04-25T05:14:16.166Z,65.19
2019-04-25T05:16:46.242Z,65.28
2019-04-25T05:19:16.749Z,65.17
2019-04-25T05:21:46.580Z,65.66
2019-04-25T05:24:17.110Z,64.85
2019-04-25T05:27:05.953Z,64.54
2019-04-25T05:29:35.243Z,64.55
2019-04-25T05:32:04.551Z,64.03
2019-04-25T05:34:34.430Z,64.06
2019-04-25T05:37:26.412Z,63.97
2019-04-25T05:39:54.980Z,63.46
2019-04-25T05:42:44.311Z,63.18
2019-04-25T05:45:16.035Z,63.57
2019-04-25T05:47:45.434Z,63.92
2019-04-25T05:50:15.664Z,63.98
2019-04-25T05:52:46.030Z,63.29
2019-04-25T05:55:18.955Z,62.60
2019-04-25T05:57:50.111Z,62.82
2019-04-25T06:00:19.101Z,62.67
2019-04-25T06:02:48.327Z,62.53
2019-04-25T06:07:54.241Z,62.49
2019-04-25T06:10:45.047Z,62.32
2019-04-25T06:13:33.372Z,61.40
2019-04-25T06:19:18.009Z,61.30
2019-04-25T06:21:43.569Z,60.79
2019-04-25T06:24:34.326Z,60.50
2019-04-25T06:27:24.329Z,60.63
2019-04-25T06:30:14.383Z,60.50
2019-04-25T06:32:44.337Z,60.41
2019-04-25T06:35:14.319Z,60.31
2019-04-25T06:37:44.714Z,60.07
2019-04-25T06:40:34.632Z,59.89
2019-04-25T06:43:04.187Z,60.01
2019-04-25T06:45:55.219Z,60.12
2019-04-25T06:48:43.351Z,59.93
2019-04-25T06:51:13.505Z,59.76
2019-04-25T06:53:43.583Z,59.69
2019-04-25T06:56:14.022Z,59.58
2019-04-25T06:59:25.573Z,59.37
2019-04-25T07:01:55.926Z,59.38
2019-04-25T07:07:18.362Z,59.08
2019-04-25T07:09:47.738Z,58.88
2019-04-25T07:12:19.298Z,58.57
2019-04-25T07:14:48.607Z,58.93
2019-04-25T07:17:17.902Z,58.45
2019-04-25T07:19:47.201Z,58.41
2019-04-25T07:22:16.507Z,57.99
2019-04-25T07:24:45.806Z,57.88
2019-04-25T07:27:34.785Z,58.07
2019-04-25T07:33:29.550Z,57.57
2019-04-25T07:35:58.932Z,57.11
2019-04-25T07:38:29.060Z,56.89
2019-04-25T07:40:59.292Z,56.68
2019-04-25T07:43:29.569Z,56.56
2019-04-25T07:45:59.612Z,56.60
2019-04-25T07:48:28.913Z,56.23
2019-04-25T07:50:58.228Z,56.27
2019-04-25T07:53:29.310Z,55.89
2019-04-25T07:55:58.571Z,55.82
2019-04-25T08:01:17.867Z,55.20
2019-04-25T08:03:47.169Z,55.08
2019-04-25T08:06:35.768Z,54.97
2019-04-25T08:12:06.503Z,54.84
2019-04-25T08:14:54.719Z,54.70
2019-04-25T08:17:44.148Z,54.57
2019-04-25T08:28:33.972Z,52.83
2019-04-25T08:31:03.634Z,52.88
2019-04-25T08:33:34.526Z,52.16
2019-04-25T08:36:08.934Z,51.78
2019-04-25T08:38:36.104Z,51.51
2019-04-25T08:41:06.282Z,51.27
2019-04-25T08:46:29.262Z,51.33
2019-04-25T08:49:17.476Z,50.98
2019-04-25T08:51:46.830Z,51.35
2019-04-25T08:54:39.733Z,51.04
2019-04-25T09:00:06.882Z,50.55
2019-04-25T09:05:45.854Z,50.34
2019-04-25T09:08:14.231Z,50.36
2019-04-25T09:10:44.969Z,50.15
2019-04-25T09:13:15.721Z,49.89
2019-04-25T09:15:45.732Z,49.54
2019-04-25T09:18:16.114Z,48.61
2019-04-25T09:20:46.562Z,48.82
2019-04-25T09:23:16.527Z,47.90
2019-04-25T09:28:20.548Z,48.12
2019-04-25T09:30:49.866Z,47.40
2019-04-25T09:33:19.138Z,48.02
2019-04-25T09:35:48.635Z,47.83
2019-04-25T09:38:36.995Z,47.63
2019-04-25T09:41:06.293Z,47.21
2019-04-25T09:43:35.853Z,47.21
2019-04-25T09:49:08.139Z,46.84
2019-04-25T09:51:44.621Z,46.81
2019-04-25T09:54:33.684Z,46.28
2019-04-25T10:00:03.644Z,46.14
2019-04-25T10:02:33.634Z,46.12
2019-04-25T10:05:04.008Z,46.63
2019-04-25T10:07:34.019Z,46.50
2019-04-25T10:10:03.794Z,46.70
2019-04-25T10:12:34.451Z,46.58
2019-04-25T10:15:43.010Z,47.04
2019-04-25T10:18:14.203Z,47.23
2019-04-25T10:20:45.151Z,47.12
2019-04-25T10:23:34.273Z,46.35
2019-04-25T10:29:14.480Z,45.72
2019-04-25T10:31:44.336Z,45.59
2019-04-25T10:34:33.749Z,45.15
2019-04-25T10:39:55.507Z,44.43
2019-04-25T10:42:24.095Z,44.50
2019-04-25T10:44:56.163Z,44.47
2019-04-25T10:47:24.431Z,43.93
2019-04-25T10:53:00.959Z,43.94
2019-04-25T10:55:30.255Z,42.96
2019-04-25T10:57:59.563Z,43.63
2019-04-25T11:04:01.907Z,43.37
2019-04-25T11:06:31.306Z,43.50
2019-04-25T11:09:00.603Z,43.59
2019-04-25T11:11:30.028Z,44.56
2019-04-25T11:13:59.926Z,44.79
2019-04-25T11:16:29.224Z,45.05
2019-04-25T11:18:58.534Z,45.65
2019-04-25T11:21:27.817Z,45.87
2019-04-25T11:23:57.135Z,46.09
2019-04-25T11:29:41.648Z,46.23
2019-04-25T11:32:13.217Z,46.29
2019-04-25T11:34:44.821Z,45.70
2019-04-25T11:37:14.725Z,45.27
2019-04-25T11:40:04.450Z,45.22
2019-04-25T11:42:47.096Z,44.94
2019-04-25T11:45:57.063Z,45.01
2019-04-25T11:48:26.702Z,44.95
2019-04-25T11:50:55.995Z,44.75
2019-04-25T11:53:25.400Z,44.40
2019-04-25T11:58:45.539Z,44.42
2019-04-25T12:04:04.165Z,44.72
2019-04-25T12:06:33.658Z,45.07
2019-04-25T12:09:04.124Z,46.02
2019-04-25T12:11:34.264Z,45.90
2019-04-25T12:16:40.401Z,46.37
2019-04-25T12:19:09.706Z,46.32
2019-04-25T12:21:39.003Z,46.80
2019-04-25T12:24:08.307Z,46.79
2019-04-25T12:26:37.627Z,46.63
2019-04-25T12:29:25.837Z,46.44
2019-04-25T12:31:56.229Z,46.64
2019-04-25T12:34:26.196Z,46.61
2019-04-25T12:36:55.595Z,46.46
2019-04-25T12:39:24.944Z,46.54
2019-04-25T12:41:55.715Z,46.74
2019-04-25T12:44:46.259Z,46.66
2019-04-25T12:49:54.847Z,46.38
2019-04-25T12:52:25.382Z,46.60
2019-04-25T12:54:57.216Z,46.75
2019-04-25T12:57:25.956Z,46.47
2019-04-25T12:59:55.505Z,46.03
2019-04-25T13:02:26.322Z,45.44
2019-04-25T13:07:49.379Z,44.94
2019-04-25T13:10:18.682Z,44.83
2019-04-25T13:12:48.007Z,45.27
2019-04-25T13:15:20.351Z,45.53
2019-04-25T13:17:49.685Z,46.34
2019-04-25T13:23:09.022Z,46.43
2019-04-25T13:25:38.670Z,46.51
2019-04-25T13:28:26.871Z,47.23
2019-04-25T13:31:15.118Z,47.34
2019-04-25T13:34:04.681Z,47.80
2019-04-25T13:42:02.087Z,49.39
2019-04-25T13:49:56.368Z,50.69
2019-04-25T13:53:05.000Z,50.59
2019-04-25T13:55:34.681Z,51.42
2019-04-25T14:00:55.375Z,51.27
2019-04-25T14:03:24.973Z,51.73
2019-04-25T14:05:55.710Z,52.00
2019-04-25T14:08:25.674Z,52.15
2019-04-25T14:10:56.109Z,51.85
2019-04-25T14:13:26.490Z,52.10
2019-04-25T14:16:15.399Z,52.61
2019-04-25T14:19:03.608Z,52.77
2019-04-25T14:21:33.537Z,53.48
2019-04-25T14:24:04.072Z,53.57
2019-04-25T14:26:33.468Z,53.45
2019-04-25T14:29:04.224Z,53.88
2019-04-25T14:31:45.466Z,54.37
2019-04-25T14:34:05.257Z,54.17
2019-04-25T14:36:34.601Z,54.35
2019-04-25T14:41:59.571Z,54.95
2019-04-25T14:44:28.883Z,54.25
2019-04-25T14:46:58.198Z,54.71
2019-04-25T14:54:56.817Z,54.41
2019-04-25T15:02:41.544Z,56.06
2019-04-25T15:05:30.957Z,55.90
2019-04-25T15:08:00.943Z,56.68
2019-04-25T15:10:37.928Z,56.67
2019-04-25T15:15:43.546Z,57.78
2019-04-25T15:18:12.851Z,58.96
2019-04-25T15:20:42.172Z,58.24
2019-04-25T15:23:11.482Z,58.09
2019-04-25T15:25:41.252Z,58.37
2019-04-25T15:28:11.843Z,57.72
2019-04-25T15:30:41.220Z,58.57
2019-04-25T15:36:05.623Z,57.82
2019-04-25T15:38:53.838Z,57.77
2019-04-25T15:41:42.046Z,57.53
2019-04-25T15:44:30.896Z,57.58
2019-04-25T15:49:37.452Z,56.63
2019-04-25T15:55:06.578Z,56.58
2019-04-25T15:57:28.185Z,56.22
2019-04-25T15:59:58.938Z,56.08
2019-04-25T16:02:28.782Z,56.16
2019-04-25T16:04:59.360Z,56.16
2019-04-25T16:07:29.065Z,56.28
2019-04-25T16:10:01.543Z,56.54
2019-04-25T16:12:30.869Z,56.68
2019-04-25T16:15:00.183Z,56.97
2019-04-25T16:17:30.625Z,57.34
2019-04-25T16:20:00.628Z,57.02
2019-04-25T16:25:18.228Z,57.14
2019-04-25T16:27:47.541Z,56.96
2019-04-25T16:32:53.850Z,57.47
2019-04-25T16:35:42.793Z,58.13
2019-04-25T16:38:12.621Z,57.70
2019-04-25T16:48:51.356Z,60.74
2019-04-25T16:51:20.655Z,61.71
2019-04-25T16:53:50.134Z,61.37
2019-04-25T16:56:19.439Z,61.71
2019-04-25T16:58:48.749Z,62.59
2019-04-25T17:01:18.105Z,63.57
2019-04-25T17:03:47.578Z,63.86
2019-04-25T17:06:16.908Z,64.96
2019-04-25T17:08:46.738Z,65.92
2019-04-25T17:11:16.696Z,66.61
2019-04-25T17:16:55.251Z,66.69
2019-04-25T17:22:12.969Z,67.38
2019-04-25T17:24:42.555Z,68.45
2019-04-25T17:27:12.027Z,69.26
2019-04-25T17:29:41.336Z,68.97
2019-04-25T17:32:29.582Z,69.27
2019-04-25T17:35:17.774Z,70.20
2019-04-25T17:38:08.677Z,69.15
2019-04-25T17:40:37.993Z,69.85
2019-04-25T17:43:18.650Z,69.79
2019-04-25T17:45:47.982Z,69.59
2019-04-25T17:48:20.203Z,69.50
2019-04-25T17:50:49.515Z,70.51
2019-04-25T17:53:37.873Z,69.25
2019-04-25T17:56:07.163Z,69.38
2019-04-25T17:58:36.765Z,70.57
2019-04-25T18:04:16.124Z,70.50
2019-04-25T18:06:45.429Z,71.02
2019-04-25T18:09:14.721Z,70.95
2019-04-25T18:11:44.043Z,71.42
2019-04-25T18:14:13.363Z,71.43
2019-04-25T18:17:01.589Z,71.73
2019-04-25T18:19:49.785Z,71.90
2019-04-25T18:22:39.119Z,72.08
2019-04-25T18:25:27.992Z,73.42
2019-04-25T18:28:02.732Z,73.21
2019-04-25T18:30:32.168Z,73.78
2019-04-25T18:33:20.405Z,74.67
2019-04-25T18:41:34.126Z,74.23
2019-04-25T18:44:04.461Z,74.29
2019-04-25T18:49:13.039Z,75.08
2019-04-25T18:51:54.454Z,75.44
2019-04-25T18:54:32.305Z,75.65
2019-04-25T18:57:16.912Z,75.80
2019-04-25T19:00:05.120Z,75.79
2019-04-25T19:02:53.362Z,75.79
2019-04-25T19:05:41.593Z,76.03
2019-04-25T19:08:11.088Z,76.02
2019-04-25T19:10:40.788Z,77.98
2019-04-25T19:13:13.016Z,78.29
2019-04-25T19:18:30.877Z,78.85
2019-04-25T19:21:00.228Z,78.07
2019-04-25T19:23:29.576Z,78.46
2019-04-25T19:25:58.911Z,79.39
2019-04-25T19:28:28.216Z,80.92
2019-04-25T19:30:57.621Z,80.34
2019-04-25T19:33:35.573Z,80.00
2019-04-25T19:35:57.972Z,79.54
2019-04-25T19:38:30.158Z,80.19
2019-04-25T19:44:07.390Z,80.34
2019-04-25T19:46:55.577Z,80.81
2019-04-25T19:49:24.909Z,80.66
2019-04-25T19:51:54.230Z,81.51
2019-04-25T19:54:43.248Z,81.10
2019-04-25T19:57:13.473Z,80.74
2019-04-25T19:59:43.271Z,81.13
2019-04-25T20:02:32.706Z,80.42
2019-04-25T20:05:20.990Z,80.62
2019-04-25T20:08:09.199Z,80.71
2019-04-25T20:10:44.039Z,80.83
2019-04-25T20:13:14.339Z,81.00
2019-04-25T20:15:44.592Z,81.14
2019-04-25T20:18:14.681Z,81.18
2019-04-25T20:26:07.435Z,84.38
2019-04-25T20:28:36.791Z,84.37
2019-04-25T20:31:06.084Z,84.16
2019-04-25T20:33:35.392Z,84.10
2019-04-25T20:36:17.030Z,85.47
2019-04-25T20:38:35.833Z,85.88
2019-04-25T20:43:40.038Z,86.38
2019-04-25T20:46:09.356Z,86.24
2019-04-25T20:48:38.661Z,87.41
2019-04-25T20:51:07.951Z,86.96
2019-04-25T20:53:37.277Z,85.76
2019-04-25T20:56:06.694Z,85.22
2019-04-25T20:58:36.014Z,85.12
2019-04-25T21:01:05.332Z,84.92
2019-04-25T21:03:34.701Z,87.17
2019-04-25T21:08:44.325Z,86.14
2019-04-25T21:11:13.623Z,86.05
2019-04-25T21:14:01.902Z,86.87
2019-04-25T21:16:50.539Z,86.45
2019-04-25T21:19:28.062Z,87.44
2019-04-25T21:21:57.357Z,87.32
2019-04-25T21:24:26.665Z,88.16
2019-04-25T21:26:56.759Z,88.15
2019-04-25T21:29:27.011Z,88.49
2019-04-25T21:31:56.719Z,88.45
2019-04-25T21:34:31.255Z,89.39
2019-04-25T21:36:58.432Z,88.47
2019-04-25T21:39:47.955Z,88.50
2019-04-25T21:48:00.946Z,90.21
2019-04-25T21:50:31.960Z,89.17
2019-04-25T21:53:03.255Z,89.22
2019-04-25T21:58:22.284Z,89.13
2019-04-25T22:01:15.760Z,89.59
2019-04-25T22:03:45.072Z,89.05
2019-04-25T22:06:17.754Z,88.49
2019-04-25T22:08:47.104Z,87.90
2019-04-25T22:11:16.434Z,88.30
2019-04-25T22:13:47.473Z,87.84
2019-04-25T22:16:18.562Z,87.73
2019-04-25T22:18:49.569Z,87.67
2019-04-25T22:24:15.065Z,88.33
2019-04-25T22:32:31.363Z,88.70
2019-04-25T22:35:19.567Z,88.38
2019-04-25T22:37:48.862Z,88.46
2019-04-25T22:40:18.164Z,88.36
2019-04-25T22:42:47.449Z,88.65
2019-04-25T22:45:16.797Z,88.65
2019-04-25T22:47:46.074Z,88.37
2019-04-25T22:50:15.523Z,89.22
2019-04-25T22:55:34.722Z,88.83
2019-04-25T22:58:23.252Z,88.84
2019-04-25T23:00:52.627Z,88.84
2019-04-25T23:06:21.032Z,90.22
2019-04-25T23:09:10.177Z,90.67
2019-04-25T23:11:40.488Z,90.67
2019-04-25T23:14:11.529Z,90.20
2019-04-25T23:16:40.806Z,89.79
2019-04-25T23:21:58.531Z,89.62
2019-04-25T23:27:37.746Z,89.53
2019-04-25T23:32:57.515Z,89.40
2019-04-25T23:35:31.791Z,89.40
2019-04-25T23:37:57.831Z,89.39
2019-04-25T23:40:27.137Z,89.79
2019-04-25T23:42:56.599Z,89.67
2019-04-25T23:45:25.911Z,89.31
2019-04-25T23:48:14.455Z,89.35
2019-04-25T23:50:44.158Z,89.17
2019-04-25T23:53:13.444Z,89.00
2019-04-25T23:55:42.754Z,89.00
2019-04-25T23:58:12.052Z,88.86
